sensor_id;sensor_type;location;lat;lon;timestamp;pressure;altitude;pressure_sealevel;temperature;humidity
56894;BME280;43392;50.078;13.704;2023-03-22T00:00:09;96752.25;;;10.53;75.71
56894;BME280;43392;50.078;13.704;2023-03-22T00:02:39;96752.25;;;10.53;75.70
56894;BME280;43392;50.078;13.704;2023-03-22T00:05:06;96753.31;;;10.52;75.81
56894;BME280;43392;50.078;13.704;2023-03-22T00:07:33;96750.91;;;10.51;75.83
56894;BME280;43392;50.078;13.704;2023-03-22T00:10:01;96746.34;;;10.51;75.99
56894;BME280;43392;50.078;13.704;2023-03-22T00:12:27;96739.66;;;10.49;76.07
56894;BME280;43392;50.078;13.704;2023-03-22T00:14:54;96733.50;;;10.48;76.28
56894;BME280;43392;50.078;13.704;2023-03-22T00:17:20;96726.25;;;10.49;76.24
56894;BME280;43392;50.078;13.704;2023-03-22T00:19:47;96731.09;;;10.47;76.24
56894;BME280;43392;50.078;13.704;2023-03-22T00:22:14;96734.06;;;10.45;76.33
56894;BME280;43392;50.078;13.704;2023-03-22T00:24:40;96732.44;;;10.44;76.28
56894;BME280;43392;50.078;13.704;2023-03-22T00:27:08;96733.25;;;10.45;76.45
56894;BME280;43392;50.078;13.704;2023-03-22T00:29:35;96735.94;;;10.45;76.30
56894;BME280;43392;50.078;13.704;2023-03-22T00:32:01;96737.53;;;10.46;76.02
56894;BME280;43392;50.078;13.704;2023-03-22T00:34:30;96746.09;;;10.48;76.05
56894;BME280;43392;50.078;13.704;2023-03-22T00:36:57;96739.66;;;10.49;76.18
56894;BME280;43392;50.078;13.704;2023-03-22T00:39:23;96729.72;;;10.49;76.52
56894;BME280;43392;50.078;13.704;2023-03-22T00:41:51;96736.19;;;10.48;76.43
56894;BME280;43392;50.078;13.704;2023-03-22T00:44:19;96730.03;;;10.48;76.35
56894;BME280;43392;50.078;13.704;2023-03-22T00:46:45;96729.22;;;10.47;76.53
56894;BME280;43392;50.078;13.704;2023-03-22T00:49:12;96729.72;;;10.49;76.41
56894;BME280;43392;50.078;13.704;2023-03-22T00:51:38;96724.09;;;10.51;76.22
56894;BME280;43392;50.078;13.704;2023-03-22T00:54:05;96726.50;;;10.52;76.21
56894;BME280;43392;50.078;13.704;2023-03-22T00:56:31;96730.25;;;10.51;76.31
56894;BME280;43392;50.078;13.704;2023-03-22T00:59:01;96732.13;;;10.56;76.02
56894;BME280;43392;50.078;13.704;2023-03-22T01:01:29;96733.69;;;10.57;75.92
56894;BME280;43392;50.078;13.704;2023-03-22T01:03:56;96729.94;;;10.58;75.86
56894;BME280;43392;50.078;13.704;2023-03-22T01:06:22;96733.41;;;10.58;75.95
56894;BME280;43392;50.078;13.704;2023-03-22T01:08:49;96734.50;;;10.57;75.76
56894;BME280;43392;50.078;13.704;2023-03-22T01:11:19;96727.25;;;10.58;75.69
56894;BME280;43392;50.078;13.704;2023-03-22T01:13:46;96728.84;;;10.59;75.49
56894;BME280;43392;50.078;13.704;2023-03-22T01:16:13;96725.34;;;10.58;75.45
56894;BME280;43392;50.078;13.704;2023-03-22T01:18:41;96718.41;;;10.57;75.23
56894;BME280;43392;50.078;13.704;2023-03-22T01:21:08;96714.72;;;10.53;75.15
56894;BME280;43392;50.078;13.704;2023-03-22T01:23:36;96702.13;;;10.49;74.81
56894;BME280;43392;50.078;13.704;2023-03-22T01:26:04;96700.75;;;10.51;74.85
56894;BME280;43392;50.078;13.704;2023-03-22T01:28:30;96702.94;;;10.49;74.90
56894;BME280;43392;50.078;13.704;2023-03-22T01:31:00;96704.03;;;10.48;75.02
56894;BME280;43392;50.078;13.704;2023-03-22T01:33:27;96702.97;;;10.44;75.03
56894;BME280;43392;50.078;13.704;2023-03-22T01:35:55;96697.63;;;10.39;75.17
56894;BME280;43392;50.078;13.704;2023-03-22T01:38:22;96691.25;;;10.35;75.13
56894;BME280;43392;50.078;13.704;2023-03-22T01:40:48;96693.69;;;10.32;75.05
56894;BME280;43392;50.078;13.704;2023-03-22T01:43:16;96677.91;;;10.25;75.37
56894;BME280;43392;50.078;13.704;2023-03-22T01:45:45;96689.44;;;10.26;75.85
56894;BME280;43392;50.078;13.704;2023-03-22T01:48:16;96683.31;;;10.20;76.15
56894;BME280;43392;50.078;13.704;2023-03-22T01:50:48;96675.31;;;10.15;76.34
56894;BME280;43392;50.078;13.704;2023-03-22T01:53:23;96670.75;;;10.11;76.47
56894;BME280;43392;50.078;13.704;2023-03-22T01:55:51;96678.84;;;10.06;76.79
56894;BME280;43392;50.078;13.704;2023-03-22T01:58:18;96683.41;;;10.05;76.72
56894;BME280;43392;50.078;13.704;2023-03-22T02:00:47;96679.94;;;10.05;76.66
56894;BME280;43392;50.078;13.704;2023-03-22T02:03:18;96682.88;;;10.03;77.00
56894;BME280;43392;50.078;13.704;2023-03-22T02:05:48;96683.72;;;9.98;77.09
56894;BME280;43392;50.078;13.704;2023-03-22T02:08:14;96681.56;;;9.95;77.05
56894;BME280;43392;50.078;13.704;2023-03-22T02:10:42;96681.34;;;9.92;77.42
56894;BME280;43392;50.078;13.704;2023-03-22T02:13:19;96683.75;;;9.88;77.50
56894;BME280;43392;50.078;13.704;2023-03-22T02:15:57;96686.72;;;9.87;77.47
56894;BME280;43392;50.078;13.704;2023-03-22T02:18:36;96687.28;;;9.84;77.55
56894;BME280;43392;50.078;13.704;2023-03-22T02:21:29;96681.69;;;9.80;77.44
56894;BME280;43392;50.078;13.704;2023-03-22T02:24:19;96680.63;;;9.76;77.60
56894;BME280;43392;50.078;13.704;2023-03-22T02:27:02;96676.91;;;9.72;77.64
56894;BME280;43392;50.078;13.704;2023-03-22T02:29:38;96674.00;;;9.69;77.62
56894;BME280;43392;50.078;13.704;2023-03-22T02:32:44;96672.13;;;9.64;77.56
56894;BME280;43392;50.078;13.704;2023-03-22T02:35:38;96672.69;;;9.61;77.58
56894;BME280;43392;50.078;13.704;2023-03-22T02:38:46;96668.94;;;9.57;77.51
56894;BME280;43392;50.078;13.704;2023-03-22T02:41:25;96678.06;;;9.56;77.57
56894;BME280;43392;50.078;13.704;2023-03-22T02:44:00;96682.63;;;9.56;77.60
56894;BME280;43392;50.078;13.704;2023-03-22T02:46:34;96684.50;;;9.55;77.29
56894;BME280;43392;50.078;13.704;2023-03-22T02:49:12;96683.97;;;9.53;77.21
56894;BME280;43392;50.078;13.704;2023-03-22T02:51:43;96684.78;;;9.54;77.13
56894;BME280;43392;50.078;13.704;2023-03-22T02:54:16;96696.84;;;9.51;77.37
56894;BME280;43392;50.078;13.704;2023-03-22T02:56:47;96701.38;;;9.51;77.46
56894;BME280;43392;50.078;13.704;2023-03-22T02:59:20;96680.84;;;9.36;77.25
56894;BME280;43392;50.078;13.704;2023-03-22T03:01:49;96688.59;;;9.32;77.54
56894;BME280;43392;50.078;13.704;2023-03-22T03:04:20;96680.63;;;9.27;77.57
56894;BME280;43392;50.078;13.704;2023-03-22T03:06:51;96676.63;;;9.15;77.77
56894;BME280;43392;50.078;13.704;2023-03-22T03:09:20;96676.38;;;9.11;78.04
56894;BME280;43392;50.078;13.704;2023-03-22T03:11:49;96679.59;;;9.08;78.15
56894;BME280;43392;50.078;13.704;2023-03-22T03:14:25;96680.66;;;9.07;78.56
56894;BME280;43392;50.078;13.704;2023-03-22T03:17:03;96681.72;;;9.06;79.02
56894;BME280;43392;50.078;13.704;2023-03-22T03:19:36;96673.72;;;9.06;79.35
56894;BME280;43392;50.078;13.704;2023-03-22T03:22:22;96680.16;;;9.05;79.30
56894;BME280;43392;50.078;13.704;2023-03-22T03:24:57;96672.13;;;9.05;79.60
56894;BME280;43392;50.078;13.704;2023-03-22T03:27:33;96684.97;;;9.03;79.54
56894;BME280;43392;50.078;13.704;2023-03-22T03:30:04;96676.41;;;9.01;79.72
56894;BME280;43392;50.078;13.704;2023-03-22T03:32:35;96667.84;;;8.99;79.74
56894;BME280;43392;50.078;13.704;2023-03-22T03:35:08;96670.53;;;8.94;80.06
56894;BME280;43392;50.078;13.704;2023-03-22T03:37:50;96666.81;;;8.90;80.08
56894;BME280;43392;50.078;13.704;2023-03-22T03:40:22;96669.78;;;8.89;80.25
56894;BME280;43392;50.078;13.704;2023-03-22T03:42:53;96675.38;;;8.87;80.20
56894;BME280;43392;50.078;13.704;2023-03-22T03:45:22;96674.84;;;8.85;80.29
56894;BME280;43392;50.078;13.704;2023-03-22T03:47:51;96669.22;;;8.82;80.94
56894;BME280;43392;50.078;13.704;2023-03-22T03:50:22;96681.25;;;8.84;80.47
56894;BME280;43392;50.078;13.704;2023-03-22T03:52:49;96687.94;;;8.82;80.37
56894;BME280;43392;50.078;13.704;2023-03-22T03:55:17;96690.09;;;8.80;80.60
56894;BME280;43392;50.078;13.704;2023-03-22T03:57:44;96687.41;;;8.80;80.69
56894;BME280;43392;50.078;13.704;2023-03-22T04:00:12;96676.19;;;8.78;81.37
56894;BME280;43392;50.078;13.704;2023-03-22T04:02:39;96675.66;;;8.76;81.17
56894;BME280;43392;50.078;13.704;2023-03-22T04:05:07;96675.94;;;8.74;80.98
56894;BME280;43392;50.078;13.704;2023-03-22T04:07:34;96684.50;;;8.71;81.13
56894;BME280;43392;50.078;13.704;2023-03-22T04:10:01;96687.69;;;8.68;81.20
56894;BME280;43392;50.078;13.704;2023-03-22T04:12:29;96689.03;;;8.65;81.15
56894;BME280;43392;50.078;13.704;2023-03-22T04:14:56;96679.44;;;8.59;81.47
56894;BME280;43392;50.078;13.704;2023-03-22T04:17:23;96688.00;;;8.56;81.55
56894;BME280;43392;50.078;13.704;2023-03-22T04:19:49;96678.13;;;8.52;81.82
56894;BME280;43392;50.078;13.704;2023-03-22T04:22:17;96682.13;;;8.54;81.92
56894;BME280;43392;50.078;13.704;2023-03-22T04:24:44;96686.13;;;8.52;81.97
56894;BME280;43392;50.078;13.704;2023-03-22T04:27:14;96679.16;;;8.51;82.13
56894;BME280;43392;50.078;13.704;2023-03-22T04:29:42;96681.03;;;8.50;82.16
56894;BME280;43392;50.078;13.704;2023-03-22T04:32:12;96686.13;;;8.47;82.41
56894;BME280;43392;50.078;13.704;2023-03-22T04:34:40;96684.50;;;8.46;82.43
56894;BME280;43392;50.078;13.704;2023-03-22T04:37:07;96694.16;;;8.47;82.29
56894;BME280;43392;50.078;13.704;2023-03-22T04:39:33;96690.94;;;8.45;82.40
56894;BME280;43392;50.078;13.704;2023-03-22T04:42:00;96693.63;;;8.40;82.78
56894;BME280;43392;50.078;13.704;2023-03-22T04:44:27;96697.88;;;8.36;82.81
56894;BME280;43392;50.078;13.704;2023-03-22T04:46:55;96700.00;;;8.29;82.79
56894;BME280;43392;50.078;13.704;2023-03-22T04:49:22;96703.19;;;8.21;83.09
56894;BME280;43392;50.078;13.704;2023-03-22T04:51:48;96695.19;;;8.21;83.31
56894;BME280;43392;50.078;13.704;2023-03-22T04:54:16;96700.78;;;8.24;83.32
56894;BME280;43392;50.078;13.704;2023-03-22T04:56:42;96698.44;;;8.28;83.33
56894;BME280;43392;50.078;13.704;2023-03-22T04:59:09;96693.91;;;8.28;83.27
56894;BME280;43392;50.078;13.704;2023-03-22T05:01:35;96696.81;;;8.32;83.51
56894;BME280;43392;50.078;13.704;2023-03-22T05:04:03;96693.63;;;8.35;83.31
56894;BME280;43392;50.078;13.704;2023-03-22T05:06:30;96687.47;;;8.39;83.36
56894;BME280;43392;50.078;13.704;2023-03-22T05:08:58;96691.19;;;8.43;83.20
56894;BME280;43392;50.078;13.704;2023-03-22T05:11:25;96693.63;;;8.45;83.36
56894;BME280;43392;50.078;13.704;2023-03-22T05:13:52;96679.72;;;8.43;83.04
56894;BME280;43392;50.078;13.704;2023-03-22T05:16:19;96690.66;;;8.46;83.16
56894;BME280;43392;50.078;13.704;2023-03-22T05:18:45;96695.19;;;8.51;83.05
56894;BME280;43392;50.078;13.704;2023-03-22T05:21:15;96698.16;;;8.54;83.31
56894;BME280;43392;50.078;13.704;2023-03-22T05:23:43;96698.69;;;8.61;83.27
56894;BME280;43392;50.078;13.704;2023-03-22T05:26:10;96694.13;;;8.67;82.72
56894;BME280;43392;50.078;13.704;2023-03-22T05:28:40;96692.78;;;8.69;82.63
56894;BME280;43392;50.078;13.704;2023-03-22T05:31:06;96690.38;;;8.73;82.48
56894;BME280;43392;50.078;13.704;2023-03-22T05:33:35;96695.19;;;8.76;82.29
56894;BME280;43392;50.078;13.704;2023-03-22T05:36:02;96701.34;;;8.77;82.32
56894;BME280;43392;50.078;13.704;2023-03-22T05:38:32;96700.53;;;8.76;82.36
56894;BME280;43392;50.078;13.704;2023-03-22T05:40:59;96695.19;;;8.76;82.09
56894;BME280;43392;50.078;13.704;2023-03-22T05:43:25;96700.25;;;8.83;82.21
56894;BME280;43392;50.078;13.704;2023-03-22T05:45:52;96707.97;;;8.89;81.71
56894;BME280;43392;50.078;13.704;2023-03-22T05:48:18;96700.75;;;8.90;81.58
56894;BME280;43392;50.078;13.704;2023-03-22T05:50:45;96696.22;;;8.90;81.45
56894;BME280;43392;50.078;13.704;2023-03-22T05:53:12;96703.19;;;8.86;81.43
56894;BME280;43392;50.078;13.704;2023-03-22T05:55:40;96696.50;;;8.84;81.53
56894;BME280;43392;50.078;13.704;2023-03-22T05:58:07;96707.97;;;8.89;81.59
56894;BME280;43392;50.078;13.704;2023-03-22T06:00:35;96696.47;;;8.94;81.37
56894;BME280;43392;50.078;13.704;2023-03-22T06:03:02;96688.19;;;8.90;81.37
56894;BME280;43392;50.078;13.704;2023-03-22T06:05:30;96695.69;;;8.98;81.20
56894;BME280;43392;50.078;13.704;2023-03-22T06:07:57;96703.66;;;9.08;81.05
56894;BME280;43392;50.078;13.704;2023-03-22T06:10:24;96699.38;;;9.12;80.76
56894;BME280;43392;50.078;13.704;2023-03-22T06:12:54;96691.34;;;9.17;80.68
56894;BME280;43392;50.078;13.704;2023-03-22T06:15:21;96695.06;;;9.21;80.38
56894;BME280;43392;50.078;13.704;2023-03-22T06:17:47;96694.25;;;9.26;80.60
56894;BME280;43392;50.078;13.704;2023-03-22T06:20:14;96683.00;;;9.29;80.39
56894;BME280;43392;50.078;13.704;2023-03-22T06:22:41;96684.34;;;9.31;80.34
56894;BME280;43392;50.078;13.704;2023-03-22T06:25:08;96676.31;;;9.31;80.28
56894;BME280;43392;50.078;13.704;2023-03-22T06:27:35;96680.53;;;9.38;80.04
56894;BME280;43392;50.078;13.704;2023-03-22T06:30:04;96674.66;;;9.41;80.09
56894;BME280;43392;50.078;13.704;2023-03-22T06:32:31;96674.13;;;9.44;79.69
56894;BME280;43392;50.078;13.704;2023-03-22T06:34:58;96677.84;;;9.48;79.75
56894;BME280;43392;50.078;13.704;2023-03-22T06:37:25;96680.50;;;9.53;79.38
56894;BME280;43392;50.078;13.704;2023-03-22T06:39:51;96675.09;;;9.58;79.13
56894;BME280;43392;50.078;13.704;2023-03-22T06:42:18;96677.75;;;9.63;79.01
56894;BME280;43392;50.078;13.704;2023-03-22T06:44:44;96672.91;;;9.70;78.91
56894;BME280;43392;50.078;13.704;2023-03-22T06:47:13;96678.22;;;9.80;78.65
56894;BME280;43392;50.078;13.704;2023-03-22T06:49:39;96683.00;;;9.88;78.19
56894;BME280;43392;50.078;13.704;2023-03-22T06:52:06;96675.16;;;9.96;77.91
56894;BME280;43392;50.078;13.704;2023-03-22T06:54:32;96674.31;;;10.01;77.72
56894;BME280;43392;50.078;13.704;2023-03-22T06:56:59;96678.56;;;10.12;77.33
56894;BME280;43392;50.078;13.704;2023-03-22T06:59:26;96682.50;;;10.20;77.23
56894;BME280;43392;50.078;13.704;2023-03-22T07:01:52;96673.91;;;10.23;76.71
56894;BME280;43392;50.078;13.704;2023-03-22T07:04:20;96673.03;;;10.32;76.73
56894;BME280;43392;50.078;13.704;2023-03-22T07:06:48;96672.44;;;10.40;76.13
56894;BME280;43392;50.078;13.704;2023-03-22T07:09:15;96671.31;;;10.46;75.91
56894;BME280;43392;50.078;13.704;2023-03-22T07:11:41;96672.63;;;10.49;75.51
56894;BME280;43392;50.078;13.704;2023-03-22T07:14:08;96676.38;;;10.53;75.63
56894;BME280;43392;50.078;13.704;2023-03-22T07:16:35;96678.19;;;10.57;75.34
56894;BME280;43392;50.078;13.704;2023-03-22T07:19:02;96684.59;;;10.61;75.18
56894;BME280;43392;50.078;13.704;2023-03-22T07:21:30;96687.50;;;10.94;76.29
56894;BME280;43392;50.078;13.704;2023-03-22T07:23:56;96683.81;;;11.13;75.57
56894;BME280;43392;50.078;13.704;2023-03-22T07:26:23;96685.75;;;11.31;75.35
56894;BME280;43392;50.078;13.704;2023-03-22T07:28:50;96675.63;;;11.47;74.84
56894;BME280;43392;50.078;13.704;2023-03-22T07:31:17;96679.84;;;11.53;74.25
56894;BME280;43392;50.078;13.704;2023-03-22T07:33:44;96677.31;;;11.62;73.78
56894;BME280;43392;50.078;13.704;2023-03-22T07:36:10;96682.00;;;11.75;73.78
56894;BME280;43392;50.078;13.704;2023-03-22T07:38:39;96671.72;;;11.82;73.20
56894;BME280;43392;50.078;13.704;2023-03-22T07:41:06;96669.53;;;11.84;72.79
56894;BME280;43392;50.078;13.704;2023-03-22T07:43:32;96674.09;;;11.83;72.55
56894;BME280;43392;50.078;13.704;2023-03-22T07:45:59;96667.13;;;11.82;72.47
56894;BME280;43392;50.078;13.704;2023-03-22T07:48:26;96669.16;;;11.90;72.21
56894;BME280;43392;50.078;13.704;2023-03-22T07:50:55;96667.41;;;11.99;72.29
56894;BME280;43392;50.078;13.704;2023-03-22T07:53:22;96676.94;;;12.11;71.50
56894;BME280;43392;50.078;13.704;2023-03-22T07:55:50;96677.06;;;12.19;71.26
56894;BME280;43392;50.078;13.704;2023-03-22T07:58:16;96663.31;;;12.21;70.78
56894;BME280;43392;50.078;13.704;2023-03-22T08:00:43;96664.47;;;12.33;70.82
56894;BME280;43392;50.078;13.704;2023-03-22T08:03:11;96656.34;;;12.38;70.57
56894;BME280;43392;50.078;13.704;2023-03-22T08:05:39;96670.50;;;12.44;70.76
56894;BME280;43392;50.078;13.704;2023-03-22T08:08:06;96671.22;;;12.49;69.57
56894;BME280;43392;50.078;13.704;2023-03-22T08:10:33;96668.00;;;12.47;69.46
56894;BME280;43392;50.078;13.704;2023-03-22T08:13:01;96669.31;;;12.50;69.05
56894;BME280;43392;50.078;13.704;2023-03-22T08:15:27;96668.00;;;12.47;69.27
56894;BME280;43392;50.078;13.704;2023-03-22T08:17:55;96659.94;;;12.47;68.72
56894;BME280;43392;50.078;13.704;2023-03-22T08:20:23;96675.56;;;12.45;68.69
56894;BME280;43392;50.078;13.704;2023-03-22T08:22:51;96670.69;;;12.47;69.43
56894;BME280;43392;50.078;13.704;2023-03-22T08:25:18;96673.03;;;12.54;69.53
56894;BME280;43392;50.078;13.704;2023-03-22T08:27:45;96665.88;;;12.63;70.00
56894;BME280;43392;50.078;13.704;2023-03-22T08:30:14;96673.38;;;12.66;69.82
56894;BME280;43392;50.078;13.704;2023-03-22T08:32:41;96681.94;;;12.68;70.05
56894;BME280;43392;50.078;13.704;2023-03-22T08:35:08;96681.03;;;12.73;70.20
56894;BME280;43392;50.078;13.704;2023-03-22T08:37:35;96683.66;;;12.78;70.12
56894;BME280;43392;50.078;13.704;2023-03-22T08:40:02;96682.16;;;12.85;69.79
56894;BME280;43392;50.078;13.704;2023-03-22T08:42:32;96675.59;;;12.91;69.59
56894;BME280;43392;50.078;13.704;2023-03-22T08:44:59;96669.03;;;12.97;69.81
56894;BME280;43392;50.078;13.704;2023-03-22T08:47:27;96665.38;;;13.07;69.30
56894;BME280;43392;50.078;13.704;2023-03-22T08:49:55;96666.38;;;13.11;69.32
56894;BME280;43392;50.078;13.704;2023-03-22T08:52:22;96670.84;;;13.15;68.93
56894;BME280;43392;50.078;13.704;2023-03-22T08:54:48;96676.16;;;13.20;68.92
56894;BME280;43392;50.078;13.704;2023-03-22T08:57:17;96664.19;;;13.26;69.11
56894;BME280;43392;50.078;13.704;2023-03-22T08:59:45;96671.19;;;13.41;68.58
56894;BME280;43392;50.078;13.704;2023-03-22T09:02:12;96663.50;;;13.48;68.11
56894;BME280;43392;50.078;13.704;2023-03-22T09:04:40;96656.59;;;13.56;68.23
56894;BME280;43392;50.078;13.704;2023-03-22T09:07:06;96654.00;;;13.64;68.03
56894;BME280;43392;50.078;13.704;2023-03-22T09:09:33;96647.59;;;13.74;68.73
56894;BME280;43392;50.078;13.704;2023-03-22T09:12:00;96645.97;;;13.86;68.63
56894;BME280;43392;50.078;13.704;2023-03-22T09:14:26;96648.81;;;14.04;67.74
56894;BME280;43392;50.078;13.704;2023-03-22T09:16:53;96646.97;;;14.13;67.66
56894;BME280;43392;50.078;13.704;2023-03-22T09:19:19;96643.44;;;14.26;66.29
56894;BME280;43392;50.078;13.704;2023-03-22T09:21:48;96636.84;;;14.32;65.98
56894;BME280;43392;50.078;13.704;2023-03-22T09:24:15;96644.81;;;14.37;65.82
56894;BME280;43392;50.078;13.704;2023-03-22T09:26:41;96641.38;;;14.45;65.84
56894;BME280;43392;50.078;13.704;2023-03-22T09:29:08;96646.34;;;14.51;64.49
56894;BME280;43392;50.078;13.704;2023-03-22T09:31:35;96640.88;;;14.65;65.40
56894;BME280;43392;50.078;13.704;2023-03-22T09:34:01;96631.41;;;14.76;63.39
56894;BME280;43392;50.078;13.704;2023-03-22T09:36:28;96634.69;;;14.65;63.88
56894;BME280;43392;50.078;13.704;2023-03-22T09:38:57;96632.56;;;14.53;64.15
56894;BME280;43392;50.078;13.704;2023-03-22T09:41:31;96631.41;;;14.45;63.97
56894;BME280;43392;50.078;13.704;2023-03-22T09:44:02;96629.63;;;14.41;64.37
56894;BME280;43392;50.078;13.704;2023-03-22T09:46:33;96628.34;;;14.38;63.57
56894;BME280;43392;50.078;13.704;2023-03-22T09:49:03;96630.22;;;14.38;63.94
56894;BME280;43392;50.078;13.704;2023-03-22T09:51:37;96623.44;;;14.40;64.50
56894;BME280;43392;50.078;13.704;2023-03-22T09:54:11;96622.50;;;14.45;64.48
56894;BME280;43392;50.078;13.704;2023-03-22T09:56:39;96616.97;;;14.50;64.31
56894;BME280;43392;50.078;13.704;2023-03-22T09:59:12;96613.34;;;14.54;63.79
56894;BME280;43392;50.078;13.704;2023-03-22T10:01:44;96606.88;;;14.55;63.61
56894;BME280;43392;50.078;13.704;2023-03-22T10:04:25;96610.53;;;14.59;63.48
56894;BME280;43392;50.078;13.704;2023-03-22T10:07:01;96599.72;;;14.59;63.40
56894;BME280;43392;50.078;13.704;2023-03-22T10:09:36;96604.53;;;14.71;62.71
56894;BME280;43392;50.078;13.704;2023-03-22T10:12:13;96603.00;;;14.79;62.41
56894;BME280;43392;50.078;13.704;2023-03-22T10:14:49;96603.66;;;14.84;62.09
56894;BME280;43392;50.078;13.704;2023-03-22T10:17:18;96595.72;;;14.88;60.94
56894;BME280;43392;50.078;13.704;2023-03-22T10:19:51;96600.38;;;14.96;60.96
56894;BME280;43392;50.078;13.704;2023-03-22T10:22:22;96594.03;;;15.00;60.10
56894;BME280;43392;50.078;13.704;2023-03-22T10:24:51;96604.38;;;15.07;59.70
56894;BME280;43392;50.078;13.704;2023-03-22T10:27:20;96589.31;;;15.06;57.49
56894;BME280;43392;50.078;13.704;2023-03-22T10:29:51;96592.97;;;15.10;57.37
56894;BME280;43392;50.078;13.704;2023-03-22T10:32:21;96586.75;;;15.09;57.50
56894;BME280;43392;50.078;13.704;2023-03-22T10:34:51;96599.19;;;15.19;57.59
56894;BME280;43392;50.078;13.704;2023-03-22T10:37:21;96594.44;;;15.24;55.67
56894;BME280;43392;50.078;13.704;2023-03-22T10:39:52;96588.56;;;15.31;56.35
56894;BME280;43392;50.078;13.704;2023-03-22T10:42:22;96598.13;;;15.37;56.19
56894;BME280;43392;50.078;13.704;2023-03-22T10:44:53;96585.28;;;15.43;55.99
56894;BME280;43392;50.078;13.704;2023-03-22T10:47:28;96578.16;;;15.47;56.20
56894;BME280;43392;50.078;13.704;2023-03-22T10:49:55;96575.13;;;15.48;55.13
56894;BME280;43392;50.078;13.704;2023-03-22T10:52:33;96572.75;;;15.55;55.20
56894;BME280;43392;50.078;13.704;2023-03-22T10:55:09;96578.47;;;15.62;55.45
56894;BME280;43392;50.078;13.704;2023-03-22T10:57:36;96573.91;;;15.71;54.96
56894;BME280;43392;50.078;13.704;2023-03-22T11:00:06;96571.97;;;15.55;55.65
56894;BME280;43392;50.078;13.704;2023-03-22T11:02:45;96570.78;;;15.30;55.26
56894;BME280;43392;50.078;13.704;2023-03-22T11:05:20;96569.19;;;15.29;55.96
56894;BME280;43392;50.078;13.704;2023-03-22T11:07:48;96570.94;;;15.25;56.46
56894;BME280;43392;50.078;13.704;2023-03-22T11:10:22;96567.09;;;15.17;56.17
56894;BME280;43392;50.078;13.704;2023-03-22T11:12:54;96568.50;;;15.15;55.76
56894;BME280;43392;50.078;13.704;2023-03-22T11:15:31;96562.22;;;15.28;56.28
56894;BME280;43392;50.078;13.704;2023-03-22T11:18:00;96555.34;;;15.13;55.89
56894;BME280;43392;50.078;13.704;2023-03-22T11:20:28;96557.22;;;15.13;56.17
56894;BME280;43392;50.078;13.704;2023-03-22T11:22:55;96547.88;;;15.19;56.11
56894;BME280;43392;50.078;13.704;2023-03-22T11:25:28;96546.63;;;15.25;54.75
56894;BME280;43392;50.078;13.704;2023-03-22T11:27:57;96549.19;;;15.39;56.93
56894;BME280;43392;50.078;13.704;2023-03-22T11:30:33;96546.53;;;15.47;56.58
56894;BME280;43392;50.078;13.704;2023-03-22T11:33:13;96541.44;;;15.54;55.54
56894;BME280;43392;50.078;13.704;2023-03-22T11:35:43;96535.59;;;15.69;55.77
56894;BME280;43392;50.078;13.704;2023-03-22T11:38:22;96527.28;;;15.74;54.55
56894;BME280;43392;50.078;13.704;2023-03-22T11:40:56;96529.53;;;15.81;53.81
56894;BME280;43392;50.078;13.704;2023-03-22T11:43:26;96511.25;;;15.78;53.51
56894;BME280;43392;50.078;13.704;2023-03-22T11:45:57;96521.09;;;15.91;53.56
56894;BME280;43392;50.078;13.704;2023-03-22T11:48:27;96520.44;;;16.03;53.94
56894;BME280;43392;50.078;13.704;2023-03-22T11:51:02;96509.59;;;16.11;54.31
56894;BME280;43392;50.078;13.704;2023-03-22T11:53:32;96509.59;;;16.20;53.76
56894;BME280;43392;50.078;13.704;2023-03-22T11:56:01;96504.03;;;16.25;53.36
56894;BME280;43392;50.078;13.704;2023-03-22T11:58:43;96508.13;;;16.31;53.58
56894;BME280;43392;50.078;13.704;2023-03-22T12:01:17;96497.13;;;16.36;53.56
56894;BME280;43392;50.078;13.704;2023-03-22T12:03:53;96483.88;;;16.43;53.09
56894;BME280;43392;50.078;13.704;2023-03-22T12:06:24;96475.31;;;16.41;51.94
56894;BME280;43392;50.078;13.704;2023-03-22T12:08:56;96480.22;;;16.47;52.38
56894;BME280;43392;50.078;13.704;2023-03-22T12:11:26;96485.31;;;16.49;52.06
56894;BME280;43392;50.078;13.704;2023-03-22T12:13:58;96481.47;;;16.50;51.88
56894;BME280;43392;50.078;13.704;2023-03-22T12:16:28;96488.97;;;16.53;52.41
56894;BME280;43392;50.078;13.704;2023-03-22T12:19:03;96479.09;;;16.57;52.64
56894;BME280;43392;50.078;13.704;2023-03-22T12:21:31;96470.94;;;16.66;52.26
56894;BME280;43392;50.078;13.704;2023-03-22T12:24:00;96464.22;;;16.72;51.85
56894;BME280;43392;50.078;13.704;2023-03-22T12:26:31;96471.50;;;16.80;51.61
56894;BME280;43392;50.078;13.704;2023-03-22T12:29:03;96462.41;;;16.84;51.59
56894;BME280;43392;50.078;13.704;2023-03-22T12:31:32;96457.91;;;16.88;51.48
56894;BME280;43392;50.078;13.704;2023-03-22T12:34:04;96457.59;;;16.90;50.91
56894;BME280;43392;50.078;13.704;2023-03-22T12:36:34;96460.44;;;16.93;50.67
56894;BME280;43392;50.078;13.704;2023-03-22T12:39:06;96465.84;;;16.93;49.91
56894;BME280;43392;50.078;13.704;2023-03-22T12:41:36;96457.44;;;16.86;50.69
56894;BME280;43392;50.078;13.704;2023-03-22T12:44:04;96455.81;;;16.94;51.06
56894;BME280;43392;50.078;13.704;2023-03-22T12:46:45;96445.13;;;16.97;51.21
56894;BME280;43392;50.078;13.704;2023-03-22T12:49:19;96440.69;;;16.93;51.09
56894;BME280;43392;50.078;13.704;2023-03-22T12:51:50;96444.66;;;16.95;48.45
56894;BME280;43392;50.078;13.704;2023-03-22T12:54:22;96431.59;;;16.97;49.54
56894;BME280;43392;50.078;13.704;2023-03-22T12:56:52;96433.63;;;17.00;49.91
56894;BME280;43392;50.078;13.704;2023-03-22T12:59:22;96428.69;;;17.02;49.77
56894;BME280;43392;50.078;13.704;2023-03-22T13:01:54;96435.94;;;17.10;49.72
56894;BME280;43392;50.078;13.704;2023-03-22T13:04:31;96436.69;;;17.19;49.73